sensor_id;sensor_type;location;lat;lon;timestamp;temperature;humidity
15717;DHT22;7960;50.908;4.204;2022-11-15T00:01:15;10.60;99.90
15717;DHT22;7960;50.908;4.204;2022-11-15T00:03:43;10.70;99.90
15717;DHT22;7960;50.908;4.204;2022-11-15T00:06:09;10.70;99.90
15717;DHT22;7960;50.908;4.204;2022-11-15T00:08:38;10.70;99.90
15717;DHT22;7960;50.908;4.204;2022-11-15T00:11:05;10.70;99.90
15717;DHT22;7960;50.908;4.204;2022-11-15T00:13:31;10.70;99.90
15717;DHT22;7960;50.908;4.204;2022-11-15T00:16:00;10.80;99.90
15717;DHT22;7960;50.908;4.204;2022-11-15T00:18:27;10.80;99.90
15717;DHT22;7960;50.908;4.204;2022-11-15T00:20:54;10.80;99.90
15717;DHT22;7960;50.908;4.204;2022-11-15T00:23:21;10.90;99.90
15717;DHT22;7960;50.908;4.204;2022-11-15T00:25:56;10.90;99.90
15717;DHT22;7960;50.908;4.204;2022-11-15T00:28:23;10.90;99.90
15717;DHT22;7960;50.908;4.204;2022-11-15T00:30:50;11.00;99.90
15717;DHT22;7960;50.908;4.204;2022-11-15T00:33:17;11.00;99.90
15717;DHT22;7960;50.908;4.204;2022-11-15T00:35:44;11.00;99.90
15717;DHT22;7960;50.908;4.204;2022-11-15T00:38:11;11.10;99.90
15717;DHT22;7960;50.908;4.204;2022-11-15T00:40:38;11.10;99.90
15717;DHT22;7960;50.908;4.204;2022-11-15T00:43:06;11.10;99.90
15717;DHT22;7960;50.908;4.204;2022-11-15T00:45:33;11.20;99.90
15717;DHT22;7960;50.908;4.204;2022-11-15T00:48:00;11.20;99.90
15717;DHT22;7960;50.908;4.204;2022-11-15T00:50:27;11.20;99.90
15717;DHT22;7960;50.908;4.204;2022-11-15T00:52:54;11.20;99.90
15717;DHT22;7960;50.908;4.204;2022-11-15T00:55:20;11.20;99.90
15717;DHT22;7960;50.908;4.204;2022-11-15T00:57:47;11.30;99.90
15717;DHT22;7960;50.908;4.204;2022-11-15T01:00:16;11.30;99.90
15717;DHT22;7960;50.908;4.204;2022-11-15T01:02:43;11.30;99.90
15717;DHT22;7960;50.908;4.204;2022-11-15T01:05:10;11.30;99.90
15717;DHT22;7960;50.908;4.204;2022-11-15T01:07:36;11.30;99.90
15717;DHT22;7960;50.908;4.204;2022-11-15T01:10:04;11.30;99.90
15717;DHT22;7960;50.908;4.204;2022-11-15T01:12:31;11.30;99.90
15717;DHT22;7960;50.908;4.204;2022-11-15T01:14:58;11.30;99.90
15717;DHT22;7960;50.908;4.204;2022-11-15T01:17:27;11.30;99.90
15717;DHT22;7960;50.908;4.204;2022-11-15T01:19:53;11.30;99.90
15717;DHT22;7960;50.908;4.204;2022-11-15T01:22:20;11.30;99.90
15717;DHT22;7960;50.908;4.204;2022-11-15T01:24:48;11.40;99.90
15717;DHT22;7960;50.908;4.204;2022-11-15T01:27:15;11.30;99.90
15717;DHT22;7960;50.908;4.204;2022-11-15T01:29:42;11.30;99.90
15717;DHT22;7960;50.908;4.204;2022-11-15T01:32:09;11.30;99.90
15717;DHT22;7960;50.908;4.204;2022-11-15T01:34:37;11.30;99.90
15717;DHT22;7960;50.908;4.204;2022-11-15T01:37:04;11.30;99.90
15717;DHT22;7960;50.908;4.204;2022-11-15T01:39:31;11.30;99.90
15717;DHT22;7960;50.908;4.204;2022-11-15T01:41:58;11.30;99.90
15717;DHT22;7960;50.908;4.204;2022-11-15T01:44:45;11.30;99.90
15717;DHT22;7960;50.908;4.204;2022-11-15T01:47:15;11.30;99.90
15717;DHT22;7960;50.908;4.204;2022-11-15T01:49:51;11.40;99.90
15717;DHT22;7960;50.908;4.204;2022-11-15T01:52:21;11.40;99.90
15717;DHT22;7960;50.908;4.204;2022-11-15T01:54:51;11.30;99.90
15717;DHT22;7960;50.908;4.204;2022-11-15T01:57:20;11.40;99.90
15717;DHT22;7960;50.908;4.204;2022-11-15T01:59:47;11.30;99.90
15717;DHT22;7960;50.908;4.204;2022-11-15T02:02:14;11.40;99.90
15717;DHT22;7960;50.908;4.204;2022-11-15T02:04:42;11.30;99.90
15717;DHT22;7960;50.908;4.204;2022-11-15T02:07:13;11.30;99.90
15717;DHT22;7960;50.908;4.204;2022-11-15T02:09:43;11.30;99.90
15717;DHT22;7960;50.908;4.204;2022-11-15T02:12:11;11.30;99.90
15717;DHT22;7960;50.908;4.204;2022-11-15T02:14:42;11.30;99.90
15717;DHT22;7960;50.908;4.204;2022-11-15T02:20:33;11.40;99.90
15717;DHT22;7960;50.908;4.204;2022-11-15T02:23:35;11.40;99.90
15717;DHT22;7960;50.908;4.204;2022-11-15T02:26:28;11.40;99.90
15717;DHT22;7960;50.908;4.204;2022-11-15T02:29:03;11.30;99.90
15717;DHT22;7960;50.908;4.204;2022-11-15T02:31:39;11.30;99.90
15717;DHT22;7960;50.908;4.204;2022-11-15T02:34:15;11.30;99.90
15717;DHT22;7960;50.908;4.204;2022-11-15T02:36:54;11.30;99.90
15717;DHT22;7960;50.908;4.204;2022-11-15T02:39:30;11.30;99.90
15717;DHT22;7960;50.908;4.204;2022-11-15T02:42:02;11.30;99.90
15717;DHT22;7960;50.908;4.204;2022-11-15T02:44:35;11.30;99.90
15717;DHT22;7960;50.908;4.204;2022-11-15T02:47:07;11.30;99.90
15717;DHT22;7960;50.908;4.204;2022-11-15T02:49:43;11.20;99.90
15717;DHT22;7960;50.908;4.204;2022-11-15T02:52:15;11.30;99.90
15717;DHT22;7960;50.908;4.204;2022-11-15T02:54:42;11.20;99.90
15717;DHT22;7960;50.908;4.204;2022-11-15T02:57:12;11.20;99.90
15717;DHT22;7960;50.908;4.204;2022-11-15T03:00:05;11.20;99.90
15717;DHT22;7960;50.908;4.204;2022-11-15T03:05:44;11.10;99.90
15717;DHT22;7960;50.908;4.204;2022-11-15T03:08:17;11.10;99.90
15717;DHT22;7960;50.908;4.204;2022-11-15T03:10:52;11.00;99.90
15717;DHT22;7960;50.908;4.204;2022-11-15T03:13:27;11.10;99.90
15717;DHT22;7960;50.908;4.204;2022-11-15T03:16:01;11.20;99.90
15717;DHT22;7960;50.908;4.204;2022-11-15T03:18:33;11.20;99.90
15717;DHT22;7960;50.908;4.204;2022-11-15T03:21:05;11.10;99.90
15717;DHT22;7960;50.908;4.204;2022-11-15T03:23:33;11.10;99.90
15717;DHT22;7960;50.908;4.204;2022-11-15T03:26:01;11.10;99.90
15717;DHT22;7960;50.908;4.204;2022-11-15T03:28:36;11.10;99.90
15717;DHT22;7960;50.908;4.204;2022-11-15T03:31:04;11.10;99.90
15717;DHT22;7960;50.908;4.204;2022-11-15T03:33:55;11.10;99.90
15717;DHT22;7960;50.908;4.204;2022-11-15T03:36:24;11.00;99.90
15717;DHT22;7960;50.908;4.204;2022-11-15T03:38:54;11.00;99.90
15717;DHT22;7960;50.908;4.204;2022-11-15T03:41:26;11.00;99.90
15717;DHT22;7960;50.908;4.204;2022-11-15T03:43:57;11.00;99.90
15717;DHT22;7960;50.908;4.204;2022-11-15T03:46:33;11.00;99.90
15717;DHT22;7960;50.908;4.204;2022-11-15T03:49:06;11.10;99.90
15717;DHT22;7960;50.908;4.204;2022-11-15T03:51:34;11.00;99.90
15717;DHT22;7960;50.908;4.204;2022-11-15T03:54:03;11.00;99.90
15717;DHT22;7960;50.908;4.204;2022-11-15T03:56:30;11.00;99.90
15717;DHT22;7960;50.908;4.204;2022-11-15T03:58:57;10.90;99.90
15717;DHT22;7960;50.908;4.204;2022-11-15T04:01:24;10.90;99.90
15717;DHT22;7960;50.908;4.204;2022-11-15T04:03:51;10.90;99.90
15717;DHT22;7960;50.908;4.204;2022-11-15T04:06:19;11.00;99.90
15717;DHT22;7960;50.908;4.204;2022-11-15T04:08:45;10.90;99.90
15717;DHT22;7960;50.908;4.204;2022-11-15T04:11:12;10.90;99.90
15717;DHT22;7960;50.908;4.204;2022-11-15T04:13:39;10.90;99.90
15717;DHT22;7960;50.908;4.204;2022-11-15T04:16:06;10.90;99.90
15717;DHT22;7960;50.908;4.204;2022-11-15T04:18:33;10.90;99.90
15717;DHT22;7960;50.908;4.204;2022-11-15T04:21:00;10.90;99.90
15717;DHT22;7960;50.908;4.204;2022-11-15T04:23:46;10.90;99.90
15717;DHT22;7960;50.908;4.204;2022-11-15T04:26:30;10.90;99.90
15717;DHT22;7960;50.908;4.204;2022-11-15T04:28:57;10.90;99.90
15717;DHT22;7960;50.908;4.204;2022-11-15T04:31:55;10.80;99.90
15717;DHT22;7960;50.908;4.204;2022-11-15T04:34:22;10.80;99.90
15717;DHT22;7960;50.908;4.204;2022-11-15T04:36:49;10.80;99.90
15717;DHT22;7960;50.908;4.204;2022-11-15T04:39:34;10.80;99.90
15717;DHT22;7960;50.908;4.204;2022-11-15T04:42:02;10.80;99.90
15717;DHT22;7960;50.908;4.204;2022-11-15T04:44:28;10.70;99.90
15717;DHT22;7960;50.908;4.204;2022-11-15T04:46:55;10.70;99.90
15717;DHT22;7960;50.908;4.204;2022-11-15T04:49:22;10.60;99.90
15717;DHT22;7960;50.908;4.204;2022-11-15T04:51:49;10.60;99.90
15717;DHT22;7960;50.908;4.204;2022-11-15T04:54:16;10.60;99.90
15717;DHT22;7960;50.908;4.204;2022-11-15T04:56:44;10.50;99.90
15717;DHT22;7960;50.908;4.204;2022-11-15T04:59:11;10.50;99.90
15717;DHT22;7960;50.908;4.204;2022-11-15T05:01:38;10.50;99.90
15717;DHT22;7960;50.908;4.204;2022-11-15T05:04:05;10.50;99.90
15717;DHT22;7960;50.908;4.204;2022-11-15T05:06:47;10.40;99.90
15717;DHT22;7960;50.908;4.204;2022-11-15T05:09:15;10.30;99.90
15717;DHT22;7960;50.908;4.204;2022-11-15T05:11:43;10.30;99.90
15717;DHT22;7960;50.908;4.204;2022-11-15T05:14:10;10.20;99.90
15717;DHT22;7960;50.908;4.204;2022-11-15T05:16:38;10.20;99.90
15717;DHT22;7960;50.908;4.204;2022-11-15T05:19:05;10.10;99.90
15717;DHT22;7960;50.908;4.204;2022-11-15T05:21:33;10.10;99.90
15717;DHT22;7960;50.908;4.204;2022-11-15T05:24:00;10.10;99.90
15717;DHT22;7960;50.908;4.204;2022-11-15T05:26:27;10.10;99.90
15717;DHT22;7960;50.908;4.204;2022-11-15T05:28:56;10.10;99.90
15717;DHT22;7960;50.908;4.204;2022-11-15T05:31:24;10.10;99.90
15717;DHT22;7960;50.908;4.204;2022-11-15T05:33:52;10.00;99.90
15717;DHT22;7960;50.908;4.204;2022-11-15T05:36:25;9.90;99.90
15717;DHT22;7960;50.908;4.204;2022-11-15T05:38:53;9.90;99.90
15717;DHT22;7960;50.908;4.204;2022-11-15T05:41:24;9.90;99.90
15717;DHT22;7960;50.908;4.204;2022-11-15T05:43:51;9.80;99.90
15717;DHT22;7960;50.908;4.204;2022-11-15T05:46:20;9.80;99.90
15717;DHT22;7960;50.908;4.204;2022-11-15T05:48:49;9.80;99.90
15717;DHT22;7960;50.908;4.204;2022-11-15T05:51:17;9.80;99.90
15717;DHT22;7960;50.908;4.204;2022-11-15T05:53:45;9.70;99.90
15717;DHT22;7960;50.908;4.204;2022-11-15T05:56:12;9.80;99.90
15717;DHT22;7960;50.908;4.204;2022-11-15T05:58:41;9.80;99.90
15717;DHT22;7960;50.908;4.204;2022-11-15T06:01:08;9.80;99.90
15717;DHT22;7960;50.908;4.204;2022-11-15T06:03:36;9.80;99.90
15717;DHT22;7960;50.908;4.204;2022-11-15T06:06:03;9.90;99.90
15717;DHT22;7960;50.908;4.204;2022-11-15T06:08:30;9.90;99.90
15717;DHT22;7960;50.908;4.204;2022-11-15T06:11:03;9.80;99.90
15717;DHT22;7960;50.908;4.204;2022-11-15T06:13:30;9.90;99.90
15717;DHT22;7960;50.908;4.204;2022-11-15T06:15:57;9.80;99.90
15717;DHT22;7960;50.908;4.204;2022-11-15T06:18:24;9.80;99.90
15717;DHT22;7960;50.908;4.204;2022-11-15T06:20:52;9.70;99.90
15717;DHT22;7960;50.908;4.204;2022-11-15T06:23:19;9.80;99.90
15717;DHT22;7960;50.908;4.204;2022-11-15T06:25:45;9.70;99.90
15717;DHT22;7960;50.908;4.204;2022-11-15T06:28:12;9.60;99.90
15717;DHT22;7960;50.908;4.204;2022-11-15T06:30:39;9.60;99.90
15717;DHT22;7960;50.908;4.204;2022-11-15T06:33:06;9.50;99.90
15717;DHT22;7960;50.908;4.204;2022-11-15T06:35:35;9.50;99.90
15717;DHT22;7960;50.908;4.204;2022-11-15T06:38:04;9.40;99.90
15717;DHT22;7960;50.908;4.204;2022-11-15T06:40:33;9.40;99.90
15717;DHT22;7960;50.908;4.204;2022-11-15T06:43:00;9.40;99.90
15717;DHT22;7960;50.908;4.204;2022-11-15T06:45:27;9.40;99.90
15717;DHT22;7960;50.908;4.204;2022-11-15T06:47:54;9.30;99.90
15717;DHT22;7960;50.908;4.204;2022-11-15T06:50:21;9.40;99.90
15717;DHT22;7960;50.908;4.204;2022-11-15T06:52:48;9.30;99.90
15717;DHT22;7960;50.908;4.204;2022-11-15T06:55:16;9.20;99.90
15717;DHT22;7960;50.908;4.204;2022-11-15T06:57:47;9.20;99.90
15717;DHT22;7960;50.908;4.204;2022-11-15T07:00:15;9.20;99.90
15717;DHT22;7960;50.908;4.204;2022-11-15T07:02:42;9.20;99.90
15717;DHT22;7960;50.908;4.204;2022-11-15T07:05:09;9.10;99.90
15717;DHT22;7960;50.908;4.204;2022-11-15T07:07:36;9.10;99.90
15717;DHT22;7960;50.908;4.204;2022-11-15T07:10:03;9.10;99.90
15717;DHT22;7960;50.908;4.204;2022-11-15T07:12:31;9.00;99.90
15717;DHT22;7960;50.908;4.204;2022-11-15T07:14:59;9.00;99.90
15717;DHT22;7960;50.908;4.204;2022-11-15T07:17:25;9.10;99.90
15717;DHT22;7960;50.908;4.204;2022-11-15T07:19:52;9.10;99.90
15717;DHT22;7960;50.908;4.204;2022-11-15T07:22:19;9.10;99.90
15717;DHT22;7960;50.908;4.204;2022-11-15T07:24:46;9.10;99.90
15717;DHT22;7960;50.908;4.204;2022-11-15T07:27:13;9.10;99.90
15717;DHT22;7960;50.908;4.204;2022-11-15T07:29:41;9.10;99.90
15717;DHT22;7960;50.908;4.204;2022-11-15T07:32:08;9.10;99.90
15717;DHT22;7960;50.908;4.204;2022-11-15T07:34:35;9.10;99.90
15717;DHT22;7960;50.908;4.204;2022-11-15T07:37:02;9.10;99.90
15717;DHT22;7960;50.908;4.204;2022-11-15T07:39:29;9.20;99.90
15717;DHT22;7960;50.908;4.204;2022-11-15T07:41:56;9.40;99.90
15717;DHT22;7960;50.908;4.204;2022-11-15T07:44:36;9.20;99.90
15717;DHT22;7960;50.908;4.204;2022-11-15T07:47:05;9.20;99.90
15717;DHT22;7960;50.908;4.204;2022-11-15T07:49:31;9.20;99.90
15717;DHT22;7960;50.908;4.204;2022-11-15T07:51:58;9.30;99.90
15717;DHT22;7960;50.908;4.204;2022-11-15T07:54:25;9.20;99.90
15717;DHT22;7960;50.908;4.204;2022-11-15T07:56:52;9.20;99.90
15717;DHT22;7960;50.908;4.204;2022-11-15T07:59:19;9.20;99.90
15717;DHT22;7960;50.908;4.204;2022-11-15T08:01:45;9.30;99.90
15717;DHT22;7960;50.908;4.204;2022-11-15T08:04:14;9.30;99.90
15717;DHT22;7960;50.908;4.204;2022-11-15T08:06:40;9.30;99.90
15717;DHT22;7960;50.908;4.204;2022-11-15T08:09:07;9.30;99.90
15717;DHT22;7960;50.908;4.204;2022-11-15T08:11:34;9.40;99.90
15717;DHT22;7960;50.908;4.204;2022-11-15T08:14:01;9.50;99.90
15717;DHT22;7960;50.908;4.204;2022-11-15T08:16:27;9.50;99.90
15717;DHT22;7960;50.908;4.204;2022-11-15T08:18:54;9.50;99.90
15717;DHT22;7960;50.908;4.204;2022-11-15T08:21:23;9.70;99.90
15717;DHT22;7960;50.908;4.204;2022-11-15T08:23:49;9.80;99.90
15717;DHT22;7960;50.908;4.204;2022-11-15T08:26:17;9.90;99.90
15717;DHT22;7960;50.908;4.204;2022-11-15T08:28:45;10.00;99.90
15717;DHT22;7960;50.908;4.204;2022-11-15T08:31:13;10.00;99.90
15717;DHT22;7960;50.908;4.204;2022-11-15T08:33:42;10.00;99.90
15717;DHT22;7960;50.908;4.204;2022-11-15T08:36:12;10.10;99.90
15717;DHT22;7960;50.908;4.204;2022-11-15T08:38:41;10.10;99.90
15717;DHT22;7960;50.908;4.204;2022-11-15T08:41:11;10.10;99.90
15717;DHT22;7960;50.908;4.204;2022-11-15T08:43:39;10.20;99.90
15717;DHT22;7960;50.908;4.204;2022-11-15T08:46:05;10.30;99.90
15717;DHT22;7960;50.908;4.204;2022-11-15T08:48:32;10.30;99.90
15717;DHT22;7960;50.908;4.204;2022-11-15T08:50:59;10.30;99.90
15717;DHT22;7960;50.908;4.204;2022-11-15T08:53:26;10.30;99.90
15717;DHT22;7960;50.908;4.204;2022-11-15T08:55:54;10.40;99.90
15717;DHT22;7960;50.908;4.204;2022-11-15T08:58:21;10.60;99.90
15717;DHT22;7960;50.908;4.204;2022-11-15T09:00:48;10.80;99.90
15717;DHT22;7960;50.908;4.204;2022-11-15T09:03:15;10.90;99.90
15717;DHT22;7960;50.908;4.204;2022-11-15T09:05:41;10.70;99.90
15717;DHT22;7960;50.908;4.204;2022-11-15T09:08:08;10.50;99.90
15717;DHT22;7960;50.908;4.204;2022-11-15T09:10:35;10.40;99.90
15717;DHT22;7960;50.908;4.204;2022-11-15T09:13:03;10.40;99.90
15717;DHT22;7960;50.908;4.204;2022-11-15T09:15:30;10.60;99.90
15717;DHT22;7960;50.908;4.204;2022-11-15T09:17:58;10.90;99.90
15717;DHT22;7960;50.908;4.204;2022-11-15T09:20:25;11.10;99.90
15717;DHT22;7960;50.908;4.204;2022-11-15T09:22:51;11.30;99.90
15717;DHT22;7960;50.908;4.204;2022-11-15T09:25:18;11.40;99.90
15717;DHT22;7960;50.908;4.204;2022-11-15T09:27:45;11.40;99.90
15717;DHT22;7960;50.908;4.204;2022-11-15T09:30:14;11.50;99.90
15717;DHT22;7960;50.908;4.204;2022-11-15T09:32:41;11.70;99.90
15717;DHT22;7960;50.908;4.204;2022-11-15T09:35:08;11.90;99.90
15717;DHT22;7960;50.908;4.204;2022-11-15T09:37:34;12.10;99.90
15717;DHT22;7960;50.908;4.204;2022-11-15T09:40:01;12.10;99.90
15717;DHT22;7960;50.908;4.204;2022-11-15T09:42:46;12.10;99.90
15717;DHT22;7960;50.908;4.204;2022-11-15T09:45:22;12.20;99.90
15717;DHT22;7960;50.908;4.204;2022-11-15T09:48:00;12.30;99.90
15717;DHT22;7960;50.908;4.204;2022-11-15T09:50:36;12.20;99.90
15717;DHT22;7960;50.908;4.204;2022-11-15T09:53:08;12.40;99.90
15717;DHT22;7960;50.908;4.204;2022-11-15T09:55:46;12.50;99.90
15717;DHT22;7960;50.908;4.204;2022-11-15T09:58:21;12.60;99.90
15717;DHT22;7960;50.908;4.204;2022-11-15T10:00:51;12.60;99.90
15717;DHT22;7960;50.908;4.204;2022-11-15T10:03:25;12.60;99.90
15717;DHT22;7960;50.908;4.204;2022-11-15T10:05:55;12.80;99.90
15717;DHT22;7960;50.908;4.204;2022-11-15T10:08:31;12.90;99.90
15717;DHT22;7960;50.908;4.204;2022-11-15T10:11:02;12.70;99.90
15717;DHT22;7960;50.908;4.204;2022-11-15T10:13:32;12.80;99.90
15717;DHT22;7960;50.908;4.204;2022-11-15T10:16:12;12.90;99.90
15717;DHT22;7960;50.908;4.204;2022-11-15T10:18:49;12.80;99.90
15717;DHT22;7960;50.908;4.204;2022-11-15T10:21:35;12.80;99.90
15717;DHT22;7960;50.908;4.204;2022-11-15T10:24:10;12.80;99.90
15717;DHT22;7960;50.908;4.204;2022-11-15T10:26:38;12.80;99.90
15717;DHT22;7960;50.908;4.204;2022-11-15T10:29:05;12.80;99.90
15717;DHT22;7960;50.908;4.204;2022-11-15T10:31:33;12.80;99.90
15717;DHT22;7960;50.908;4.204;2022-11-15T10:34:16;12.90;99.90
15717;DHT22;7960;50.908;4.204;2022-11-15T10:36:45;12.90;99.90
15717;DHT22;7960;50.908;4.204;2022-11-15T10:39:13;12.80;99.90
15717;DHT22;7960;50.908;4.204;2022-11-15T10:41:42;12.70;99.90
15717;DHT22;7960;50.908;4.204;2022-11-15T10:44:22;12.60;99.90
15717;DHT22;7960;50.908;4.204;2022-11-15T10:47:19;12.50;99.90
15717;DHT22;7960;50.908;4.204;2022-11-15T10:49:55;12.50;99.90
15717;DHT22;7960;50.908;4.204;2022-11-15T10:52:22;12.40;99.90
15717;DHT22;7960;50.908;4.204;2022-11-15T10:54:53;12.40;99.90
15717;DHT22;7960;50.908;4.204;2022-11-15T10:57:23;12.50;99.90
15717;DHT22;7960;50.908;4.204;2022-11-15T10:59:54;12.50;99.90
15717;DHT22;7960;50.908;4.204;2022-11-15T11:02:28;12.60;99.90
15717;DHT22;7960;50.908;4.204;2022-11-15T11:04:56;12.60;99.90
15717;DHT22;7960;50.908;4.204;2022-11-15T11:07:26;12.60;99.90
15717;DHT22;7960;50.908;4.204;2022-11-15T11:09:58;12.60;99.90
15717;DHT22;7960;50.908;4.204;2022-11-15T11:12:30;12.70;99.90
15717;DHT22;7960;50.908;4.204;2022-11-15T11:14:59;12.70;99.90
15717;DHT22;7960;50.908;4.204;2022-11-15T11:17:34;12.80;99.90
15717;DHT22;7960;50.908;4.204;2022-11-15T11:20:10;13.00;99.90
15717;DHT22;7960;50.908;4.204;2022-11-15T11:22:46;13.10;99.90
15717;DHT22;7960;50.908;4.204;2022-11-15T11:25:22;13.20;99.90
15717;DHT22;7960;50.908;4.204;2022-11-15T11:28:01;13.30;99.90
15717;DHT22;7960;50.908;4.204;2022-11-15T11:30:38;13.30;99.90
15717;DHT22;7960;50.908;4.204;2022-11-15T11:33:16;13.30;99.90
15717;DHT22;7960;50.908;4.204;2022-11-15T11:35:53;13.40;99.90
15717;DHT22;7960;50.908;4.204;2022-11-15T11:38:39;13.30;99.90
15717;DHT22;7960;50.908;4.204;2022-11-15T11:41:15;13.20;99.90
15717;DHT22;7960;50.908;4.204;2022-11-15T11:43:52;13.10;99.90
15717;DHT22;7960;50.908;4.204;2022-11-15T11:46:33;12.90;99.90
15717;DHT22;7960;50.908;4.204;2022-11-15T11:49:09;12.80;99.90
15717;DHT22;7960;50.908;4.204;2022-11-15T11:51:40;12.80;99.90
15717;DHT22;7960;50.908;4.204;2022-11-15T11:54:12;12.80;99.90
15717;DHT22;7960;50.908;4.204;2022-11-15T11:56:41;12.70;99.90
15717;DHT22;7960;50.908;4.204;2022-11-15T11:59:17;12.70;99.90
15717;DHT22;7960;50.908;4.204;2022-11-15T12:01:45;12.70;99.90
15717;DHT22;7960;50.908;4.204;2022-11-15T12:04:18;12.70;99.90
15717;DHT22;7960;50.908;4.204;2022-11-15T12:06:49;12.80;99.90
15717;DHT22;7960;50.908;4.204;2022-11-15T12:09:22;12.80;99.90
15717;DHT22;7960;50.908;4.204;2022-11-15T12:11:54;12.80;99.90
15717;DHT22;7960;50.908;4.204;2022-11-15T12:14:29;12.70;99.90
15717;DHT22;7960;50.908;4.204;2022-11-15T12:16:58;12.70;99.90
15717;DHT22;7960;50.908;4.204;2022-11-15T12:19:28;12.70;99.90
15717;DHT22;7960;50.908;4.204;2022-11-15T12:22:00;12.70;99.90
15717;DHT22;7960;50.908;4.204;2022-11-15T12:24:31;12.70;99.90
15717;DHT22;7960;50.908;4.204;2022-11-15T12:27:03;12.80;99.90
15717;DHT22;7960;50.908;4.204;2022-11-15T12:29:35;12.70;99.90
15717;DHT22;7960;50.908;4.204;2022-11-15T12:32:03;12.70;99.90
15717;DHT22;7960;50.908;4.204;2022-11-15T12:34:43;12.80;99.90
15717;DHT22;7960;50.908;4.204;2022-11-15T12:40:25;12.70;99.90
15717;DHT22;7960;50.908;4.204;2022-11-15T12:43:01;12.70;99.90
15717;DHT22;7960;50.908;4.204;2022-11-15T12:45:30;12.70;99.90
15717;DHT22;7960;50.908;4.204;2022-11-15T12:50:55;12.70;99.90
15717;DHT22;7960;50.908;4.204;2022-11-15T12:53:27;12.70;99.90
15717;DHT22;7960;50.908;4.204;2022-11-15T12:56:20;12.80;99.90
15717;DHT22;7960;50.908;4.204;2022-11-15T12:58:49;12.80;99.90
15717;DHT22;7960;50.908;4.204;2022-11-15T13:04:25;12.90;99.90
15717;DHT22;7960;50.908;4.204;2022-11-15T13:06:55;12.90;99.90
15717;DHT22;7960;50.908;4.204;2022-11-15T13:09:50;12.90;99.90
15717;DHT22;7960;50.908;4.204;2022-11-15T13:15:45;12.90;99.90
15717;DHT22;7960;50.908;4.204;2022-11-15T13:18:36;13.00;99.90
15717;DHT22;7960;50.908;4.204;2022-11-15T13:21:16;13.00;99.90
15717;DHT22;7960;50.908;4.204;2022-11-15T13:24:18;12.90;99.90
15717;DHT22;7960;50.908;4.204;2022-11-15T13:26:45;12.90;99.90
15717;DHT22;7960;50.908;4.204;2022-11-15T13:29:17;13.00;99.90
15717;DHT22;7960;50.908;4.204;2022-11-15T13:31:45;13.00;99.90
15717;DHT22;7960;50.908;4.204;2022-11-15T13:34:27;12.90;99.90
15717;DHT22;7960;50.908;4.204;2022-11-15T13:36:55;12.90;99.90
15717;DHT22;7960;50.908;4.204;2022-11-15T13:39:29;12.90;99.90
15717;DHT22;7960;50.908;4.204;2022-11-15T13:41:56;12.90;99.90
15717;DHT22;7960;50.908;4.204;2022-11-15T13:44:25;12.90;99.90
15717;DHT22;7960;50.908;4.204;2022-11-15T13:47:04;12.90;99.90
15717;DHT22;7960;50.908;4.204;2022-11-15T13:49:32;12.90;99.90
15717;DHT22;7960;50.908;4.204;2022-11-15T13:52:00;12.90;99.90
15717;DHT22;7960;50.908;4.204;2022-11-15T13:54:32;13.00;99.90
15717;DHT22;7960;50.908;4.204;2022-11-15T13:57:02;13.00;99.90
15717;DHT22;7960;50.908;4.204;2022-11-15T13:59:32;12.90;99.90
15717;DHT22;7960;50.908;4.204;2022-11-15T14:02:03;12.90;99.90
15717;DHT22;7960;50.908;4.204;2022-11-15T14:04:39;12.90;99.90
15717;DHT22;7960;50.908;4.204;2022-11-15T14:07:16;12.90;99.90
15717;DHT22;7960;50.908;4.204;2022-11-15T14:09:45;12.90;99.90
15717;DHT22;7960;50.908;4.204;2022-11-15T14:12:25;12.90;99.90
15717;DHT22;7960;50.908;4.204;2022-11-15T14:14:53;12.90;99.90
15717;DHT22;7960;50.908;4.204;2022-11-15T14:17:21;12.90;99.90
15717;DHT22;7960;50.908;4.204;2022-11-15T14:19:59;12.90;99.90
15717;DHT22;7960;50.908;4.204;2022-11-15T14:22:27;12.90;99.90
15717;DHT22;7960;50.908;4.204;2022-11-15T14:25:13;12.90;99.90
15717;DHT22;7960;50.908;4.204;2022-11-15T14:27:40;12.80;99.90
15717;DHT22;7960;50.908;4.204;2022-11-15T14:30:13;12.80;99.90
15717;DHT22;7960;50.908;4.204;2022-11-15T14:32:44;12.70;99.90
15717;DHT22;7960;50.908;4.204;2022-11-15T14:35:14;12.70;99.90
15717;DHT22;7960;50.908;4.204;2022-11-15T14:37:43;12.70;99.90
15717;DHT22;7960;50.908;4.204;2022-11-15T14:40:14;12.60;99.90
15717;DHT22;7960;50.908;4.204;2022-11-15T14:42:43;12.60;99.90
15717;DHT22;7960;50.908;4.204;2022-11-15T14:45:13;12.50;99.90
15717;DHT22;7960;50.908;4.204;2022-11-15T14:47:40;12.40;99.90
15717;DHT22;7960;50.908;4.204;2022-11-15T14:50:11;12.40;99.90
15717;DHT22;7960;50.908;4.204;2022-11-15T14:52:38;12.30;99.90
15717;DHT22;7960;50.908;4.204;2022-11-15T14:55:15;12.30;99.90
15717;DHT22;7960;50.908;4.204;2022-11-15T14:57:43;12.20;99.90
15717;DHT22;7960;50.908;4.204;2022-11-15T15:00:11;12.10;99.90
15717;DHT22;7960;50.908;4.204;2022-11-15T15:02:38;12.10;99.90
15717;DHT22;7960;50.908;4.204;2022-11-15T15:05:13;12.00;99.90
15717;DHT22;7960;50.908;4.204;2022-11-15T15:07:40;12.00;99.90
15717;DHT22;7960;50.908;4.204;2022-11-15T15:10:08;12.00;99.90
15717;DHT22;7960;50.908;4.204;2022-11-15T15:12:37;12.00;99.90
15717;DHT22;7960;50.908;4.204;2022-11-15T15:15:05;12.00;99.90
15717;DHT22;7960;50.908;4.204;2022-11-15T15:17:32;12.00;99.90
15717;DHT22;7960;50.908;4.204;2022-11-15T15:19:59;12.00;99.90
15717;DHT22;7960;50.908;4.204;2022-11-15T15:22:28;11.90;99.90
15717;DHT22;7960;50.908;4.204;2022-11-15T15:24:56;12.00;99.90
15717;DHT22;7960;50.908;4.204;2022-11-15T15:27:23;11.90;99.90
15717;DHT22;7960;50.908;4.204;2022-11-15T15:29:51;11.90;99.90
15717;DHT22;7960;50.908;4.204;2022-11-15T15:32:18;11.90;99.90
15717;DHT22;7960;50.908;4.204;2022-11-15T15:34:45;11.90;99.90
15717;DHT22;7960;50.908;4.204;2022-11-15T15:37:22;11.90;99.90
15717;DHT22;7960;50.908;4.204;2022-11-15T15:39:50;11.90;99.90
15717;DHT22;7960;50.908;4.204;2022-11-15T15:42:18;11.90;99.90
15717;DHT22;7960;50.908;4.204;2022-11-15T15:44:45;11.80;99.90
15717;DHT22;7960;50.908;4.204;2022-11-15T15:47:14;11.80;99.90
15717;DHT22;7960;50.908;4.204;2022-11-15T15:49:42;11.80;99.90
15717;DHT22;7960;50.908;4.204;2022-11-15T15:52:09;11.80;99.90
15717;DHT22;7960;50.908;4.204;2022-11-15T15:54:37;11.80;99.90
15717;DHT22;7960;50.908;4.204;2022-11-15T15:57:04;11.70;99.90
15717;DHT22;7960;50.908;4.204;2022-11-15T15:59:31;11.80;99.90
15717;DHT22;7960;50.908;4.204;2022-11-15T16:01:58;11.80;99.90
15717;DHT22;7960;50.908;4.204;2022-11-15T16:04:27;11.70;99.90
15717;DHT22;7960;50.908;4.204;2022-11-15T16:06:58;11.80;99.90
15717;DHT22;7960;50.908;4.204;2022-11-15T16:09:25;11.80;99.90
15717;DHT22;7960;50.908;4.204;2022-11-15T16:12:06;11.80;99.90
15717;DHT22;7960;50.908;4.204;2022-11-15T16:14:33;11.80;99.90
15717;DHT22;7960;50.908;4.204;2022-11-15T16:16:59;11.80;99.90
15717;DHT22;7960;50.908;4.204;2022-11-15T16:19:28;11.80;99.90
15717;DHT22;7960;50.908;4.204;2022-11-15T16:21:55;11.80;99.90
15717;DHT22;7960;50.908;4.204;2022-11-15T16:24:25;11.80;99.90
15717;DHT22;7960;50.908;4.204;2022-11-15T16:26:52;11.80;99.90
15717;DHT22;7960;50.908;4.204;2022-11-15T16:29:18;11.80;99.90